createdAt,value
2018-11-12T00:02:13.997Z,52.40
2018-11-12T00:04:44.147Z,60.93
2018-11-12T00:07:14.269Z,53.50
2018-11-12T00:09:44.389Z,56.77
2018-11-12T00:12:14.542Z,47.63
2018-11-12T00:14:44.635Z,51.30
2018-11-12T00:17:14.780Z,53.07
2018-11-12T00:19:46.615Z,50.07
2018-11-12T00:22:16.747Z,57.20
2018-11-12T00:24:46.909Z,51.10
2018-11-12T00:27:17.023Z,48.00
2018-11-12T00:29:47.147Z,43.00
2018-11-12T00:32:17.293Z,43.20
2018-11-12T00:34:50.359Z,45.10
2018-11-12T00:37:20.687Z,45.33
2018-11-12T00:39:50.761Z,45.67
2018-11-12T00:42:20.873Z,43.83
2018-11-12T00:44:50.989Z,46.87
2018-11-12T00:47:21.141Z,53.33
2018-11-12T00:49:51.253Z,53.10
2018-11-12T00:53:31.017Z,43.87
2018-11-12T00:56:01.721Z,52.97
2018-11-12T00:58:31.843Z,49.10
2018-11-12T01:01:02.321Z,60.53
2018-11-12T01:03:32.445Z,59.27
2018-11-12T01:06:02.581Z,54.87
2018-11-12T01:08:32.711Z,52.87
2018-11-12T01:11:03.255Z,48.70
2018-11-12T01:13:33.337Z,53.60
2018-11-12T01:16:03.830Z,48.97
2018-11-12T01:18:33.923Z,51.23
2018-11-12T01:21:04.067Z,47.70
2018-11-12T01:23:34.232Z,46.97
2018-11-12T01:26:04.461Z,50.10
2018-11-12T01:28:34.612Z,44.57
2018-11-12T01:31:06.216Z,45.47
2018-11-12T01:33:37.815Z,46.67
2018-11-12T01:36:07.895Z,50.27
2018-11-12T01:38:38.018Z,42.23
2018-11-12T01:41:08.244Z,41.63
2018-11-12T01:43:38.429Z,38.67
2018-11-12T01:46:08.513Z,40.67
2018-11-12T01:48:40.176Z,38.53
2018-11-12T01:51:10.273Z,45.23
2018-11-12T01:53:41.585Z,40.00
2018-11-12T01:56:11.781Z,40.93
2018-11-12T01:58:41.866Z,40.97
2018-11-12T02:01:13.253Z,44.93
2018-11-12T02:03:43.356Z,43.47
2018-11-12T02:06:13.764Z,38.97
2018-11-12T02:08:44.579Z,47.63
2018-11-12T02:11:14.614Z,43.63
2018-11-12T02:13:45.444Z,44.87
2018-11-12T02:16:16.492Z,39.43
2018-11-12T02:18:46.658Z,42.03
2018-11-12T02:21:16.762Z,41.80
2018-11-12T02:23:46.863Z,44.50
2018-11-12T02:26:16.990Z,38.90
2018-11-12T02:28:47.106Z,40.77
2018-11-12T02:31:17.205Z,40.37
2018-11-12T02:33:47.333Z,44.23
2018-11-12T02:36:17.407Z,36.83
2018-11-12T02:38:47.456Z,44.67
2018-11-12T02:41:17.532Z,44.67
2018-11-12T02:43:47.698Z,41.43
2018-11-12T02:46:18.022Z,43.07
2018-11-12T02:48:48.161Z,42.60
2018-11-12T02:51:18.937Z,40.53
2018-11-12T02:53:49.056Z,38.67
2018-11-12T02:56:19.137Z,40.57
2018-11-12T02:58:50.270Z,38.80
2018-11-12T03:01:22.017Z,38.30
2018-11-12T03:03:53.473Z,42.63
2018-11-12T03:06:23.492Z,35.97
2018-11-12T03:08:54.390Z,46.50
2018-11-12T03:11:24.428Z,41.37
2018-11-12T03:13:54.598Z,41.50
2018-11-12T03:16:24.652Z,46.30
2018-11-12T03:18:54.765Z,49.63
2018-11-12T03:21:24.852Z,53.77
2018-11-12T03:23:54.953Z,56.17
2018-11-12T03:26:25.092Z,46.97
2018-11-12T03:28:55.187Z,49.30
2018-11-12T03:31:25.252Z,59.43
2018-11-12T03:33:55.413Z,47.27
2018-11-12T03:36:25.560Z,44.17
2018-11-12T03:38:55.665Z,49.83
2018-11-12T03:41:25.793Z,44.83
2018-11-12T03:43:55.937Z,48.20
2018-11-12T03:46:26.038Z,42.53
2018-11-12T03:48:56.122Z,41.13
2018-11-12T03:51:26.206Z,40.83
2018-11-12T03:53:56.328Z,41.30
2018-11-12T03:56:26.408Z,53.33
2018-11-12T03:58:56.494Z,42.80
2018-11-12T04:01:31.928Z,34.37
2018-11-12T04:04:02.390Z,43.73
2018-11-12T04:06:32.510Z,39.73
2018-11-12T04:09:02.664Z,40.93
2018-11-12T04:11:32.798Z,37.40
2018-11-12T04:14:02.964Z,40.43
2018-11-12T04:16:33.076Z,42.87
2018-11-12T04:19:03.935Z,39.63
2018-11-12T04:21:35.443Z,44.47
2018-11-12T04:24:06.462Z,37.87
2018-11-12T04:26:36.630Z,40.70
2018-11-12T04:29:06.873Z,39.20
2018-11-12T04:31:37.160Z,39.37
2018-11-12T04:34:07.314Z,41.87
2018-11-12T04:36:37.434Z,42.00
2018-11-12T04:39:09.795Z,40.27
2018-11-12T04:41:39.936Z,39.50
2018-11-12T04:44:10.869Z,42.70
2018-11-12T04:46:41.826Z,50.53
2018-11-12T04:49:11.946Z,45.47
2018-11-12T04:51:42.044Z,56.10
2018-11-12T04:54:12.183Z,47.07
2018-11-12T04:56:42.324Z,42.60
2018-11-12T04:59:12.486Z,56.60
2018-11-12T05:01:42.617Z,46.50
2018-11-12T05:04:12.692Z,45.53
2018-11-12T05:06:42.785Z,58.50
2018-11-12T05:09:13.247Z,58.17
2018-11-12T05:11:43.299Z,55.10
2018-11-12T05:14:13.441Z,55.00
2018-11-12T05:16:43.611Z,54.90
2018-11-12T05:19:13.634Z,61.53
2018-11-12T05:21:43.810Z,64.53
2018-11-12T05:24:14.315Z,48.00
2018-11-12T05:26:44.408Z,40.00
2018-11-12T05:29:14.539Z,34.63
2018-11-12T05:31:44.678Z,33.37
2018-11-12T05:34:15.093Z,31.17
2018-11-12T05:36:45.263Z,36.57
2018-11-12T05:39:15.398Z,39.43
2018-11-12T05:41:45.658Z,41.67
2018-11-12T05:44:15.775Z,40.97
2018-11-12T05:46:47.139Z,48.07
2018-11-12T05:49:17.274Z,43.83
2018-11-12T05:51:48.265Z,40.20
2018-11-12T05:54:18.509Z,39.17
2018-11-12T05:56:48.579Z,63.60
2018-11-12T05:59:18.667Z,51.63
2018-11-12T06:01:48.787Z,49.87
2018-11-12T06:04:18.921Z,54.70
2018-11-12T06:06:49.811Z,55.30
2018-11-12T06:09:20.082Z,59.63
2018-11-12T06:11:50.178Z,79.60
2018-11-12T06:14:20.287Z,76.47
2018-11-12T06:16:50.484Z,65.90
2018-11-12T06:19:20.580Z,54.43
2018-11-12T06:21:50.713Z,61.70
2018-11-12T06:24:23.611Z,49.23
2018-11-12T06:26:53.761Z,45.80
2018-11-12T06:29:30.114Z,41.27
2018-11-12T06:32:00.263Z,51.83
2018-11-12T06:34:30.387Z,45.77
2018-11-12T06:37:00.544Z,50.53
2018-11-12T06:39:31.066Z,41.33
2018-11-12T06:42:01.275Z,38.53
2018-11-12T06:44:31.411Z,46.77
2018-11-12T06:47:01.527Z,47.37
2018-11-12T06:49:31.677Z,45.97
2018-11-12T06:52:01.778Z,46.13
2018-11-12T06:54:31.861Z,45.87
2018-11-12T06:57:02.121Z,50.23
2018-11-12T06:59:32.285Z,45.80
2018-11-12T07:04:39.575Z,56.10
2018-11-12T07:07:09.728Z,51.53
2018-11-12T07:09:40.121Z,68.50
2018-11-12T07:12:10.282Z,71.83
2018-11-12T07:14:59.172Z,87.33
2018-11-12T07:17:46.321Z,108.80
2018-11-12T07:20:34.422Z,129.60
2018-11-12T07:23:04.693Z,123.57
2018-11-12T07:25:34.775Z,100.33
2018-11-12T07:28:06.077Z,126.50
2018-11-12T07:30:37.828Z,133.17
2018-11-12T07:33:08.308Z,131.70
2018-11-12T07:35:38.544Z,121.57
2018-11-12T07:38:15.184Z,116.67
2018-11-12T07:40:45.350Z,104.00
2018-11-12T07:43:15.590Z,88.77
2018-11-12T07:45:45.692Z,76.00
2018-11-12T07:48:15.822Z,71.17
2018-11-12T07:50:45.984Z,68.67
2018-11-12T07:53:16.166Z,57.77
2018-11-12T07:55:46.258Z,57.27
2018-11-12T07:58:16.490Z,54.00
2018-11-12T08:00:46.624Z,53.77
2018-11-12T08:03:16.905Z,52.77
2018-11-12T08:05:47.006Z,44.83
2018-11-12T08:08:17.194Z,45.87
2018-11-12T08:10:47.318Z,44.77
2018-11-12T08:13:17.491Z,42.23
2018-11-12T08:15:47.581Z,39.83
2018-11-12T08:18:17.740Z,40.00
2018-11-12T08:20:47.921Z,39.77
2018-11-12T08:23:18.123Z,37.70
2018-11-12T08:25:48.286Z,41.37
2018-11-12T08:28:18.482Z,34.13
2018-11-12T08:30:48.567Z,33.73
2018-11-12T08:33:18.657Z,32.90
2018-11-12T08:35:48.778Z,33.23
2018-11-12T08:38:19.028Z,30.17
2018-11-12T08:40:49.323Z,29.43
2018-11-12T08:43:20.200Z,27.27
2018-11-12T08:45:50.942Z,27.27
2018-11-12T08:48:21.109Z,26.73
2018-11-12T08:50:51.246Z,28.10
2018-11-12T08:53:21.410Z,26.13
2018-11-12T08:55:51.500Z,28.60
2018-11-12T08:58:21.604Z,25.80
2018-11-12T09:00:52.125Z,30.97
2018-11-12T09:03:22.200Z,27.83
2018-11-12T09:05:52.453Z,28.93
2018-11-12T09:08:22.649Z,27.57
2018-11-12T09:10:52.827Z,24.50
2018-11-12T09:13:23.113Z,25.03
2018-11-12T09:15:53.314Z,25.00
2018-11-12T09:18:23.424Z,23.30
2018-11-12T09:20:53.603Z,21.67
2018-11-12T09:23:23.883Z,18.97
2018-11-12T09:25:53.913Z,18.73
2018-11-12T09:28:24.018Z,18.67
2018-11-12T09:30:55.511Z,19.93
2018-11-12T09:33:24.411Z,19.60
2018-11-12T09:35:54.560Z,19.07
2018-11-12T09:38:24.674Z,19.30
2018-11-12T09:40:54.802Z,20.17
2018-11-12T09:43:24.996Z,20.27
2018-11-12T09:45:55.098Z,21.27
2018-11-12T09:48:25.332Z,18.63
2018-11-12T09:50:55.461Z,20.27
2018-11-12T09:53:25.582Z,19.50
2018-11-12T09:55:55.833Z,18.30
2018-11-12T09:58:25.956Z,16.50
2018-11-12T10:00:56.501Z,18.03
2018-11-12T10:03:28.741Z,18.00
2018-11-12T10:06:01.716Z,20.70
2018-11-12T10:08:36.641Z,16.23
2018-11-12T10:11:06.974Z,17.07
2018-11-12T10:13:36.950Z,16.43
2018-11-12T10:16:09.018Z,12.30
2018-11-12T10:18:36.252Z,16.20
2018-11-12T10:21:06.892Z,12.03
2018-11-12T10:23:37.064Z,11.97
2018-11-12T10:26:07.330Z,15.50
2018-11-12T10:28:37.475Z,10.30
2018-11-12T10:31:07.669Z,19.37
2018-11-12T10:33:37.797Z,10.90
2018-11-12T10:36:08.129Z,11.83
2018-11-12T10:38:38.509Z,10.53
2018-11-12T10:41:09.029Z,10.33
2018-11-12T10:43:39.099Z,13.17
2018-11-12T10:46:09.244Z,9.13
2018-11-12T10:48:39.333Z,9.40
2018-11-12T10:51:09.561Z,10.17
2018-11-12T10:53:49.844Z,9.97
2018-11-12T10:56:09.820Z,9.23
2018-11-12T10:58:39.968Z,10.33
2018-11-12T11:01:15.223Z,9.13
2018-11-12T11:03:46.881Z,10.30
2018-11-12T11:06:16.964Z,11.53
2018-11-12T11:08:47.075Z,9.67
2018-11-12T11:11:17.155Z,9.13
2018-11-12T11:13:47.305Z,8.53
2018-11-12T11:16:17.478Z,8.90
2018-11-12T11:18:47.567Z,9.53
2018-11-12T11:21:24.394Z,7.53
2018-11-12T11:23:54.449Z,9.33
2018-11-12T11:26:24.585Z,7.73
2018-11-12T11:28:54.683Z,7.60
2018-11-12T11:31:25.652Z,8.60
2018-11-12T11:33:55.785Z,8.30
2018-11-12T11:36:25.876Z,7.13
2018-11-12T11:38:55.989Z,8.03
2018-11-12T11:41:26.149Z,8.00
2018-11-12T11:43:56.313Z,7.10
2018-11-12T11:46:26.390Z,7.40
2018-11-12T11:48:56.868Z,7.33
2018-11-12T11:51:26.871Z,8.40
2018-11-12T11:53:56.990Z,8.00
2018-11-12T11:56:27.313Z,8.00
2018-11-12T11:58:57.440Z,6.90
2018-11-12T12:01:27.548Z,8.20
2018-11-12T12:04:00.552Z,7.23
2018-11-12T12:06:31.540Z,6.60
2018-11-12T12:09:01.750Z,6.63
2018-11-12T12:11:31.864Z,6.10
2018-11-12T12:14:02.059Z,7.00
2018-11-12T12:16:32.128Z,6.63
2018-11-12T12:19:02.315Z,6.70
2018-11-12T12:21:32.418Z,7.00
2018-11-12T12:24:02.591Z,6.93
2018-11-12T12:26:32.762Z,6.97
2018-11-12T12:29:02.866Z,6.90
2018-11-12T12:31:33.099Z,6.90
2018-11-12T12:34:03.253Z,5.70
2018-11-12T12:36:33.437Z,7.13
2018-11-12T12:39:03.824Z,6.00
2018-11-12T12:41:33.920Z,6.73
2018-11-12T12:44:04.224Z,6.67
2018-11-12T12:46:34.357Z,6.30
2018-11-12T12:49:04.594Z,5.90
2018-11-12T12:51:34.858Z,5.77
2018-11-12T12:54:05.142Z,7.73
2018-11-12T12:56:35.470Z,6.10
2018-11-12T12:59:05.606Z,5.83
2018-11-12T13:01:35.822Z,6.20
2018-11-12T13:04:06.178Z,4.90
2018-11-12T13:06:36.347Z,5.63
2018-11-12T13:09:09.809Z,5.67
2018-11-12T13:11:40.193Z,5.07
2018-11-12T13:14:10.387Z,5.47
2018-11-12T13:16:40.431Z,4.30
2018-11-12T13:19:10.571Z,5.50
2018-11-12T13:21:40.714Z,5.30
2018-11-12T13:24:10.825Z,5.13
2018-11-12T13:26:40.984Z,4.93
2018-11-12T13:29:11.108Z,6.07
2018-11-12T13:31:41.200Z,4.53
2018-11-12T13:34:11.324Z,4.60
2018-11-12T13:36:41.531Z,5.67
2018-11-12T13:39:12.895Z,5.17
2018-11-12T13:41:43.087Z,4.90
2018-11-12T13:44:13.239Z,5.20
2018-11-12T13:46:48.605Z,8.97
2018-11-12T13:49:18.730Z,5.17
2018-11-12T13:51:48.878Z,5.30
2018-11-12T13:54:19.076Z,5.20
2018-11-12T13:56:49.226Z,6.30
2018-11-12T13:59:19.342Z,10.37
2018-11-12T14:01:49.531Z,5.73
2018-11-12T14:04:19.602Z,15.23
2018-11-12T14:06:49.765Z,13.07
2018-11-12T14:09:19.981Z,8.17
2018-11-12T14:11:50.325Z,8.80
2018-11-12T14:14:20.494Z,6.53
2018-11-12T14:16:50.602Z,6.50
2018-11-12T14:19:20.747Z,5.93
2018-11-12T14:21:50.952Z,6.20
2018-11-12T14:24:21.076Z,5.87
2018-11-12T14:26:51.228Z,5.80
2018-11-12T14:29:21.715Z,6.83
2018-11-12T14:31:51.867Z,6.10
2018-11-12T14:34:22.068Z,6.10
2018-11-12T14:36:55.236Z,8.10
2018-11-12T14:39:25.468Z,6.60
2018-11-12T14:41:55.586Z,9.50
2018-11-12T14:44:25.772Z,7.57
2018-11-12T14:46:55.924Z,7.67
2018-11-12T14:49:26.060Z,7.03
2018-11-12T14:51:56.176Z,6.87
2018-11-12T14:54:26.298Z,6.90
2018-11-12T14:56:56.458Z,8.60
2018-11-12T14:59:26.635Z,7.20
2018-11-12T15:01:56.741Z,7.70
2018-11-12T15:04:26.875Z,7.20
2018-11-12T15:06:57.066Z,7.60
2018-11-12T15:09:27.283Z,11.53
2018-11-12T15:11:57.451Z,7.17
2018-11-12T15:14:27.585Z,7.40
2018-11-12T15:16:57.706Z,7.27
2018-11-12T15:19:27.890Z,8.37
2018-11-12T15:21:58.026Z,7.10
2018-11-12T15:24:28.208Z,7.90
2018-11-12T15:26:58.385Z,7.60
2018-11-12T15:29:28.552Z,7.67
2018-11-12T15:31:58.689Z,13.00
2018-11-12T15:34:28.923Z,8.23
2018-11-12T15:36:59.184Z,7.90
2018-11-12T15:39:29.174Z,7.93
2018-11-12T15:41:59.323Z,15.63
2018-11-12T15:44:29.493Z,13.20
2018-11-12T15:46:59.641Z,8.60
2018-11-12T15:49:29.825Z,8.53
2018-11-12T15:51:59.975Z,8.70
2018-11-12T15:54:30.106Z,8.10
2018-11-12T15:57:00.272Z,8.63
2018-11-12T15:59:30.453Z,10.87
2018-11-12T16:02:00.639Z,8.63
2018-11-12T16:04:30.937Z,9.77
2018-11-12T16:07:01.273Z,9.93
2018-11-12T16:09:31.657Z,8.60
2018-11-12T16:12:01.908Z,10.07
2018-11-12T16:14:32.059Z,9.43
2018-11-12T16:17:02.314Z,9.67
2018-11-12T16:19:32.443Z,9.03
2018-11-12T16:22:02.558Z,10.80
2018-11-12T16:24:32.723Z,9.87
2018-11-12T16:27:02.864Z,14.23
2018-11-12T16:29:32.996Z,9.87
2018-11-12T16:32:03.109Z,12.70
2018-11-12T16:34:33.280Z,9.37
2018-11-12T16:37:03.700Z,12.90
2018-11-12T16:39:33.807Z,10.47
2018-11-12T16:42:04.061Z,12.37
2018-11-12T16:44:34.681Z,11.43
2018-11-12T16:47:05.557Z,14.83
2018-11-12T16:49:36.024Z,13.17
2018-11-12T16:52:06.751Z,14.73
2018-11-12T16:54:37.636Z,14.03
2018-11-12T16:57:08.372Z,14.10
2018-11-12T16:59:39.155Z,12.63
2018-11-12T17:02:09.831Z,12.53
2018-11-12T17:04:40.136Z,12.27
2018-11-12T17:07:10.793Z,11.63
2018-11-12T17:09:41.406Z,12.60
2018-11-12T17:12:11.928Z,11.63
2018-11-12T17:14:42.468Z,11.47
2018-11-12T17:17:12.906Z,13.03
2018-11-12T17:19:43.797Z,13.47
2018-11-12T17:22:14.326Z,14.00
2018-11-12T17:24:45.745Z,12.53
2018-11-12T17:27:16.351Z,15.83
2018-11-12T17:29:46.894Z,12.67
2018-11-12T17:32:17.507Z,13.97
2018-11-12T17:34:48.149Z,15.47
2018-11-12T17:37:18.748Z,13.97
2018-11-12T17:39:49.298Z,14.57
2018-11-12T17:42:19.688Z,15.43
2018-11-12T17:44:50.567Z,15.97
2018-11-12T17:47:20.730Z,16.60
2018-11-12T17:49:50.900Z,13.67
2018-11-12T17:52:21.036Z,14.60
2018-11-12T17:54:51.150Z,16.70
2018-11-12T17:57:21.307Z,16.30
2018-11-12T17:59:51.519Z,16.77
2018-11-12T18:02:21.754Z,17.90
2018-11-12T18:04:52.974Z,16.17
2018-11-12T18:07:23.368Z,17.03
2018-11-12T18:09:53.463Z,17.67
2018-11-12T18:12:23.636Z,17.43
2018-11-12T18:14:53.815Z,17.83
2018-11-12T18:17:23.992Z,18.33
2018-11-12T18:19:54.137Z,19.70
2018-11-12T18:22:24.256Z,18.30
2018-11-12T18:24:54.423Z,15.53
2018-11-12T18:27:24.581Z,14.73
2018-11-12T18:29:54.789Z,16.17
2018-11-12T18:32:24.904Z,18.67
2018-11-12T18:34:55.064Z,20.40
2018-11-12T18:37:25.168Z,21.53
2018-11-12T18:39:55.306Z,20.03
2018-11-12T18:42:25.490Z,18.07
2018-11-12T18:45:03.838Z,17.37
2018-11-12T18:47:33.970Z,21.90
2018-11-12T18:50:04.842Z,22.40
2018-11-12T18:52:35.030Z,20.97
2018-11-12T18:55:05.942Z,18.60
2018-11-12T18:57:36.084Z,20.37
2018-11-12T19:00:08.231Z,19.60
2018-11-12T19:02:39.187Z,18.77
2018-11-12T19:05:17.709Z,18.60
2018-11-12T19:07:49.244Z,19.30
2018-11-12T19:10:34.425Z,21.37
2018-11-12T19:13:04.540Z,20.30
2018-11-12T19:15:38.527Z,18.60
2018-11-12T19:18:16.396Z,20.80
2018-11-12T19:20:47.212Z,22.43
2018-11-12T19:23:18.439Z,19.97
2018-11-12T19:25:48.604Z,23.83
2018-11-12T19:28:18.741Z,23.67
2018-11-12T19:30:48.929Z,17.03
2018-11-12T19:33:19.060Z,16.70
2018-11-12T19:35:49.200Z,16.77
2018-11-12T19:38:19.466Z,16.10
2018-11-12T19:40:49.686Z,14.90
2018-11-12T19:43:19.784Z,17.63
2018-11-12T19:45:50.032Z,15.23
2018-11-12T19:48:20.235Z,16.97
2018-11-12T19:50:50.503Z,16.07
2018-11-12T19:53:20.626Z,15.03
2018-11-12T19:55:50.909Z,14.20
2018-11-12T19:58:21.698Z,15.67
2018-11-12T20:00:51.880Z,15.43
2018-11-12T20:03:22.038Z,15.13
2018-11-12T20:05:52.384Z,16.63
2018-11-12T20:08:25.227Z,18.60
2018-11-12T20:10:55.371Z,21.23
2018-11-12T20:13:25.535Z,17.23
2018-11-12T20:15:55.774Z,16.60
2018-11-12T20:18:26.028Z,18.60
2018-11-12T20:20:56.230Z,17.53
2018-11-12T20:23:26.522Z,17.13
2018-11-12T20:25:56.742Z,18.00
2018-11-12T20:28:26.955Z,18.47
2018-11-12T20:30:57.207Z,15.03
2018-11-12T20:33:27.478Z,17.30
2018-11-12T20:35:57.631Z,17.23
2018-11-12T20:38:27.821Z,16.73
2018-11-12T20:40:58.115Z,16.27
2018-11-12T20:43:28.282Z,14.80
2018-11-12T20:45:59.027Z,15.73
2018-11-12T20:48:29.232Z,16.13
2018-11-12T20:50:59.545Z,18.00
2018-11-12T20:53:29.693Z,19.37
2018-11-12T20:55:59.821Z,16.10
2018-11-12T20:58:30.039Z,15.43
2018-11-12T21:01:01.209Z,17.53
2018-11-12T21:03:31.372Z,20.37
2018-11-12T21:06:01.857Z,18.27
2018-11-12T21:08:31.991Z,20.63
2018-11-12T21:11:02.134Z,20.03
2018-11-12T21:13:32.344Z,17.50
2018-11-12T21:16:02.463Z,18.33
2018-11-12T21:18:34.343Z,19.10
2018-11-12T21:21:04.631Z,20.17
2018-11-12T21:23:34.852Z,19.33
2018-11-12T21:26:05.081Z,19.60
2018-11-12T21:28:36.252Z,20.67
2018-11-12T21:31:06.619Z,19.37
2018-11-12T21:33:37.600Z,20.47
2018-11-12T21:36:34.463Z,20.07
2018-11-12T21:39:19.976Z,19.93
2018-11-12T21:41:50.192Z,21.93
2018-11-12T21:44:20.353Z,19.87
2018-11-12T21:46:50.522Z,21.43
2018-11-12T21:49:20.689Z,20.83
2018-11-12T21:51:51.068Z,19.27
2018-11-12T21:54:21.213Z,20.67
2018-11-12T21:56:51.385Z,20.23
2018-11-12T21:59:21.592Z,21.73
2018-11-12T22:01:51.804Z,22.50
2018-11-12T22:04:21.975Z,18.97
2018-11-12T22:06:52.123Z,20.87
2018-11-12T22:09:23.013Z,21.60
2018-11-12T22:11:53.109Z,22.33
2018-11-12T22:14:23.247Z,22.67
2018-11-12T22:16:53.479Z,24.30
2018-11-12T22:19:23.742Z,20.30
2018-11-12T22:21:53.926Z,24.00
2018-11-12T22:24:24.067Z,26.40
2018-11-12T22:26:54.366Z,23.30
2018-11-12T22:29:24.471Z,28.67
2018-11-12T22:31:54.573Z,27.80
2018-11-12T22:34:24.801Z,23.17
2018-11-12T22:36:54.939Z,29.67
2018-11-12T22:39:25.055Z,26.10
2018-11-12T22:41:55.197Z,24.20
2018-11-12T22:44:25.343Z,26.00
2018-11-12T22:46:56.093Z,22.23
2018-11-12T22:49:26.312Z,24.00
2018-11-12T22:51:56.544Z,24.37
2018-11-12T22:54:26.767Z,19.43
2018-11-12T22:56:56.997Z,24.87
2018-11-12T22:59:27.148Z,20.83
2018-11-12T23:01:57.285Z,21.67
2018-11-12T23:04:27.421Z,20.60
2018-11-12T23:06:57.617Z,24.17
2018-11-12T23:09:27.766Z,22.80
2018-11-12T23:11:57.998Z,21.87
2018-11-12T23:14:28.155Z,23.87
2018-11-12T23:16:58.286Z,25.23
2018-11-12T23:19:28.517Z,24.37
2018-11-12T23:21:58.749Z,19.20
2018-11-12T23:24:28.873Z,16.87
2018-11-12T23:26:59.044Z,18.90
2018-11-12T23:29:29.247Z,20.20
2018-11-12T23:31:59.364Z,16.47
2018-11-12T23:34:29.450Z,19.43
2018-11-12T23:36:59.559Z,18.27
2018-11-12T23:39:29.679Z,18.73
2018-11-12T23:41:59.742Z,16.90
2018-11-12T23:44:29.892Z,16.70
2018-11-12T23:47:00.090Z,17.80
2018-11-12T23:49:30.321Z,16.13
2018-11-12T23:52:00.430Z,16.10
2018-11-12T23:54:30.556Z,16.23
2018-11-12T23:57:00.846Z,16.27
2018-11-12T23:59:30.936Z,16.57
